Time;durP1;ratioP1;P1;durP2;ratioP2;P2;SDS_P1;SDS_P2;PMS_P1;PMS_P2;Temp;Humidity;BMP_temperature;BMP_pressure;BME280_temperature;BME280_humidity;BME280_pressure;Samples;Min_cycle;Max_cycle;Signal;HPM_P1;HPM_P2
2023/04/18 00:01:15;;;;;;;20.90;9.40;;;;;;;;;;25481;292;3005094;-36
2023/04/18 00:03:44;;;;;;;21.60;10.60;;;;;;;;;;25627;292;3003827;-36
2023/04/18 00:06:12;;;;;;;21.50;11.20;;;;;;;;;;25265;292;3003768;-33
2023/04/18 00:08:40;;;;;;;17.60;8.40;;;;;;;;;;25245;292;3007493;-34
2023/04/18 00:11:08;;;;;;;17.20;9.70;;;;;;;;;;25582;292;3004403;-33
2023/04/18 00:13:38;;;;;;;18.20;11.60;;;;;;;;;;25615;313;3004116;-34
2023/04/18 00:16:07;;;;;;;21.10;8.10;;;;;;;;;;25237;304;3003962;-34
2023/04/18 00:18:35;;;;;;;15.10;10.00;;;;;;;;;;25269;337;3004980;-33
2023/04/18 00:21:03;;;;;;;20.80;10.40;;;;;;;;;;25237;284;3004845;-36
2023/04/18 00:23:33;;;;;;;19.30;10.40;;;;;;;;;;25559;292;3006274;-33
2023/04/18 00:26:00;;;;;;;15.50;8.00;;;;;;;;;;25224;292;3003549;-34
2023/04/18 00:28:28;;;;;;;18.20;9.20;;;;;;;;;;25581;292;3006125;-36
2023/04/18 00:30:56;;;;;;;19.20;10.20;;;;;;;;;;25578;293;3005441;-33
2023/04/18 00:33:25;;;;;;;20.90;10.40;;;;;;;;;;25538;292;3003831;-33
2023/04/18 00:35:53;;;;;;;17.10;7.40;;;;;;;;;;25564;292;3006192;-36
2023/04/18 00:38:21;;;;;;;12.40;7.40;;;;;;;;;;25236;292;3004046;-33
2023/04/18 00:40:49;;;;;;;16.10;7.70;;;;;;;;;;25514;292;3005005;-34
2023/04/18 00:43:17;;;;;;;20.00;10.00;;;;;;;;;;25466;292;3004957;-37
2023/04/18 00:45:45;;;;;;;10.70;6.70;;;;;;;;;;25606;292;3004773;-35
2023/04/18 00:48:13;;;;;;;16.10;8.90;;;;;;;;;;25686;292;3003513;-37
2023/04/18 00:50:42;;;;;;;16.90;10.00;;;;;;;;;;25549;292;3003905;-34
2023/04/18 00:53:10;;;;;;;13.70;9.10;;;;;;;;;;25546;293;3005565;-34
2023/04/18 00:55:38;;;;;;;11.90;6.40;;;;;;;;;;25641;292;3004753;-37
2023/04/18 00:58:06;;;;;;;12.10;7.20;;;;;;;;;;25664;292;3005339;-37
2023/04/18 01:00:34;;;;;;;13.20;6.10;;;;;;;;;;25213;292;3004897;-34
2023/04/18 01:03:02;;;;;;;9.80;7.50;;;;;;;;;;25318;293;3003476;-33
2023/04/18 01:05:30;;;;;;;12.80;7.70;;;;;;;;;;25596;293;3004412;-33
2023/04/18 01:07:59;;;;;;;9.80;7.40;;;;;;;;;;25632;292;3005518;-33
2023/04/18 01:10:27;;;;;;;13.40;8.20;;;;;;;;;;25234;292;3003704;-36
2023/04/18 01:13:07;;;;;;;13.60;7.70;;;;;;;;;;25541;293;3005008;-37
2023/04/18 01:15:35;;;;;;;7.00;5.60;;;;;;;;;;25260;292;3005082;-35
2023/04/18 01:18:03;;;;;;;15.70;8.50;;;;;;;;;;25253;292;3006445;-34
2023/04/18 01:20:31;;;;;;;13.70;7.00;;;;;;;;;;25536;292;3005992;-37
2023/04/18 01:22:59;;;;;;;9.20;6.00;;;;;;;;;;25219;292;3004741;-36
2023/04/18 01:25:27;;;;;;;14.60;5.50;;;;;;;;;;25664;292;3004736;-37
2023/04/18 01:27:57;;;;;;;8.80;5.70;;;;;;;;;;25606;292;3004737;-37
2023/04/18 01:30:25;;;;;;;13.80;6.00;;;;;;;;;;25246;292;3004386;-37
2023/04/18 01:32:53;;;;;;;9.80;4.60;;;;;;;;;;25586;292;3004950;-37
2023/04/18 01:35:21;;;;;;;18.80;7.20;;;;;;;;;;25459;292;3003728;-37
2023/04/18 01:37:49;;;;;;;18.90;5.20;;;;;;;;;;25441;292;3004095;-33
2023/04/18 01:40:17;;;;;;;13.80;5.90;;;;;;;;;;25607;292;3005678;-36
2023/04/18 01:42:45;;;;;;;5.70;3.30;;;;;;;;;;25557;292;3004951;-33
2023/04/18 01:45:14;;;;;;;10.10;7.20;;;;;;;;;;25645;292;3003574;-33
2023/04/18 01:47:42;;;;;;;14.20;7.60;;;;;;;;;;25240;292;3004012;-33
2023/04/18 01:50:10;;;;;;;11.80;4.90;;;;;;;;;;25465;292;3004724;-33
2023/04/18 01:52:38;;;;;;;15.80;7.60;;;;;;;;;;25505;292;3004755;-36
2023/04/18 01:55:06;;;;;;;16.00;7.00;;;;;;;;;;25500;292;3005213;-36
2023/04/18 01:57:35;;;;;;;12.50;7.30;;;;;;;;;;25460;292;3004279;-34
2023/04/18 02:00:05;;;;;;;15.00;8.80;;;;;;;;;;25242;292;3004575;-36
2023/04/18 02:02:33;;;;;;;12.10;7.10;;;;;;;;;;25224;292;3003877;-36
2023/04/18 02:05:01;;;;;;;13.40;7.80;;;;;;;;;;25674;292;3006224;-36
2023/04/18 02:07:29;;;;;;;11.90;7.80;;;;;;;;;;25309;292;3003479;-34
2023/04/18 02:09:57;;;;;;;15.00;5.60;;;;;;;;;;25383;292;3005438;-36
2023/04/18 02:12:25;;;;;;;7.80;6.50;;;;;;;;;;25694;292;3005968;-36
2023/04/18 02:14:53;;;;;;;13.80;7.50;;;;;;;;;;25543;292;3005981;-34
2023/04/18 02:17:22;;;;;;;8.60;6.10;;;;;;;;;;25614;292;3006209;-35
2023/04/18 02:19:51;;;;;;;9.70;6.20;;;;;;;;;;25267;292;3006515;-33
2023/04/18 02:22:19;;;;;;;10.20;6.00;;;;;;;;;;25624;292;3003517;-34
2023/04/18 02:24:48;;;;;;;14.50;8.00;;;;;;;;;;25637;292;3004442;-32
2023/04/18 02:27:16;;;;;;;10.70;6.10;;;;;;;;;;25416;292;3003703;-33
2023/04/18 02:29:44;;;;;;;10.10;6.70;;;;;;;;;;25228;292;3003793;-35
2023/04/18 02:32:12;;;;;;;11.90;5.90;;;;;;;;;;25302;292;3004041;-33
2023/04/18 02:34:40;;;;;;;13.40;6.50;;;;;;;;;;25615;292;3006126;-33
2023/04/18 02:37:08;;;;;;;10.00;5.00;;;;;;;;;;25684;292;3003947;-38
2023/04/18 02:39:37;;;;;;;10.30;6.30;;;;;;;;;;25225;292;3005263;-33
2023/04/18 02:42:05;;;;;;;9.60;5.70;;;;;;;;;;25638;281;3004794;-36
2023/04/18 02:44:33;;;;;;;10.70;4.60;;;;;;;;;;25590;292;3004794;-32
2023/04/18 02:47:01;;;;;;;9.50;5.70;;;;;;;;;;25608;292;3005398;-37
2023/04/18 02:49:29;;;;;;;12.30;6.80;;;;;;;;;;25464;292;3005951;-35
2023/04/18 02:51:57;;;;;;;14.60;6.00;;;;;;;;;;25571;292;3003706;-32
2023/04/18 02:54:25;;;;;;;10.50;5.50;;;;;;;;;;25615;292;3003546;-32
2023/04/18 02:56:53;;;;;;;9.30;6.00;;;;;;;;;;25478;292;3006132;-33
2023/04/18 02:59:21;;;;;;;9.10;4.40;;;;;;;;;;25569;292;3004997;-36
2023/04/18 03:01:49;;;;;;;12.00;6.10;;;;;;;;;;25630;292;3005965;-36
2023/04/18 03:04:18;;;;;;;7.20;4.20;;;;;;;;;;25288;292;3004042;-35
2023/04/18 03:06:47;;;;;;;9.20;4.90;;;;;;;;;;25618;292;3005132;-33
2023/04/18 03:09:16;;;;;;;9.30;6.20;;;;;;;;;;25257;292;3006469;-35
2023/04/18 03:11:44;;;;;;;6.80;5.10;;;;;;;;;;25267;292;3005322;-33
2023/04/18 03:14:12;;;;;;;9.00;5.40;;;;;;;;;;25403;292;3005968;-33
2023/04/18 03:16:41;;;;;;;7.70;4.80;;;;;;;;;;25616;292;3006144;-36
2023/04/18 03:19:09;;;;;;;7.50;4.10;;;;;;;;;;25251;292;3006558;-36
2023/04/18 03:21:37;;;;;;;8.60;5.40;;;;;;;;;;25395;292;3004027;-36
2023/04/18 03:24:05;;;;;;;25.80;5.60;;;;;;;;;;25606;292;3005346;-33
2023/04/18 03:26:33;;;;;;;6.60;5.40;;;;;;;;;;25458;292;3006106;-36
2023/04/18 03:29:01;;;;;;;9.80;5.70;;;;;;;;;;25631;292;3006180;-33
2023/04/18 03:31:29;;;;;;;5.00;2.90;;;;;;;;;;25273;292;3003534;-34
2023/04/18 03:33:57;;;;;;;3.40;2.90;;;;;;;;;;25364;292;3004158;-36
2023/04/18 03:36:27;;;;;;;6.50;4.70;;;;;;;;;;25647;292;3004277;-32
2023/04/18 03:38:55;;;;;;;5.80;4.30;;;;;;;;;;25252;292;3006144;-35
2023/04/18 03:41:23;;;;;;;5.20;4.40;;;;;;;;;;25545;292;3003976;-35
2023/04/18 03:43:51;;;;;;;9.40;5.30;;;;;;;;;;25536;289;3004994;-32
2023/04/18 03:46:20;;;;;;;9.00;5.20;;;;;;;;;;25513;292;3004414;-35
2023/04/18 03:48:48;;;;;;;7.80;5.10;;;;;;;;;;25273;292;3003783;-37
2023/04/18 03:51:16;;;;;;;9.30;4.80;;;;;;;;;;25610;292;3004925;-32
2023/04/18 03:53:44;;;;;;;9.20;6.10;;;;;;;;;;25610;292;3004977;-35
2023/04/18 03:56:12;;;;;;;12.40;4.80;;;;;;;;;;25577;292;3006229;-36
2023/04/18 03:58:40;;;;;;;7.90;5.40;;;;;;;;;;25705;292;3005064;-36
2023/04/18 04:01:08;;;;;;;7.90;5.20;;;;;;;;;;25606;294;3003819;-33
2023/04/18 04:03:37;;;;;;;4.30;3.70;;;;;;;;;;25628;293;3005256;-33
2023/04/18 04:06:05;;;;;;;6.80;5.10;;;;;;;;;;25554;292;3004755;-35
2023/04/18 04:08:33;;;;;;;6.20;4.50;;;;;;;;;;25361;292;3005016;-33
2023/04/18 04:11:01;;;;;;;8.00;4.50;;;;;;;;;;25566;292;3005529;-36
2023/04/18 04:13:29;;;;;;;10.90;5.20;;;;;;;;;;25603;292;3004766;-33
2023/04/18 04:15:57;;;;;;;7.10;4.30;;;;;;;;;;25498;292;3006223;-32
2023/04/18 04:18:29;;;;;;;8.00;5.40;;;;;;;;;;25522;293;3006186;-35
2023/04/18 04:20:57;;;;;;;6.80;4.90;;;;;;;;;;25236;292;3005011;-34
2023/04/18 04:23:25;;;;;;;7.50;6.10;;;;;;;;;;25252;292;3004721;-33
2023/04/18 04:25:53;;;;;;;6.50;5.80;;;;;;;;;;25475;292;3003706;-36
2023/04/18 04:28:21;;;;;;;8.20;5.90;;;;;;;;;;25486;292;3004941;-36
2023/04/18 04:30:49;;;;;;;8.10;5.40;;;;;;;;;;25520;292;3005095;-33
2023/04/18 04:33:18;;;;;;;7.00;5.60;;;;;;;;;;25616;292;3005949;-33
2023/04/18 04:35:46;;;;;;;6.70;5.30;;;;;;;;;;25253;293;3005461;-33
2023/04/18 05:16:46;;;;;;;12.70;7.10;;;;;;;;;;25225;293;3545103;-32
2023/04/18 05:19:15;;;;;;;11.80;6.70;;;;;;;;;;25044;293;3500061;-32
2023/04/18 05:21:43;;;;;;;8.10;6.50;;;;;;;;;;25217;295;3006659;-36
2023/04/18 05:24:11;;;;;;;8.70;6.00;;;;;;;;;;25624;291;3005944;-33
2023/04/18 05:26:39;;;;;;;7.30;5.10;;;;;;;;;;25619;291;3005255;-37
2023/04/18 05:29:07;;;;;;;11.60;6.80;;;;;;;;;;25475;291;3004944;-33
2023/04/18 05:31:35;;;;;;;9.00;5.40;;;;;;;;;;25713;303;3004948;-33
2023/04/18 05:34:03;;;;;;;8.60;5.60;;;;;;;;;;25551;291;3004974;-36
2023/04/18 05:36:31;;;;;;;11.40;7.30;;;;;;;;;;25648;291;3006395;-36
2023/04/18 05:39:00;;;;;;;11.50;7.60;;;;;;;;;;25634;291;3006509;-33
2023/04/18 05:41:28;;;;;;;14.50;8.70;;;;;;;;;;25409;291;3005189;-36
2023/04/18 05:43:56;;;;;;;12.10;8.70;;;;;;;;;;25660;291;3006023;-34
2023/04/18 05:46:24;;;;;;;13.60;9.50;;;;;;;;;;25469;308;3003651;-34
2023/04/18 05:48:52;;;;;;;17.90;10.70;;;;;;;;;;25514;291;3004964;-36
2023/04/18 05:51:20;;;;;;;18.10;10.30;;;;;;;;;;25627;291;3004779;-37
2023/04/18 05:53:48;;;;;;;19.30;11.20;;;;;;;;;;25589;293;3006408;-33
2023/04/18 05:56:16;;;;;;;19.80;11.80;;;;;;;;;;25640;291;3005305;-36
2023/04/18 05:58:46;;;;;;;30.80;17.30;;;;;;;;;;25689;291;3005016;-36
2023/04/18 06:01:14;;;;;;;27.10;15.90;;;;;;;;;;25270;291;3004928;-34
2023/04/18 06:03:42;;;;;;;25.70;14.80;;;;;;;;;;25543;291;3004253;-36
2023/04/18 06:06:10;;;;;;;23.50;12.70;;;;;;;;;;25472;291;3004701;-35
2023/04/18 06:08:38;;;;;;;28.70;16.10;;;;;;;;;;25576;293;3006691;-36
2023/04/18 06:11:07;;;;;;;27.20;16.70;;;;;;;;;;25459;303;3005055;-36
2023/04/18 06:13:36;;;;;;;29.60;16.10;;;;;;;;;;25256;291;3006311;-33
2023/04/18 06:16:03;;;;;;;26.00;13.60;;;;;;;;;;25266;291;3003723;-34
2023/04/18 06:18:32;;;;;;;28.10;16.50;;;;;;;;;;25267;292;3004780;-33
2023/04/18 06:21:00;;;;;;;38.40;22.20;;;;;;;;;;25258;284;3003469;-33
2023/04/18 06:23:28;;;;;;;27.00;15.90;;;;;;;;;;25629;293;3006195;-33
2023/04/18 06:25:57;;;;;;;42.70;20.10;;;;;;;;;;25497;292;3005988;-36
2023/04/18 06:28:25;;;;;;;33.90;19.10;;;;;;;;;;25430;292;3006517;-33
2023/04/18 06:30:53;;;;;;;29.60;16.60;;;;;;;;;;25473;292;3006289;-35
2023/04/18 06:33:21;;;;;;;33.20;18.00;;;;;;;;;;25567;284;3005033;-35
2023/04/18 06:35:49;;;;;;;25.80;14.50;;;;;;;;;;25628;284;3006109;-35
2023/04/18 06:38:17;;;;;;;32.50;17.90;;;;;;;;;;25545;291;3006182;-33
2023/04/18 06:40:45;;;;;;;22.50;14.20;;;;;;;;;;25527;292;3005242;-33
2023/04/18 06:43:14;;;;;;;36.00;18.00;;;;;;;;;;25222;293;3005216;-35
2023/04/18 06:45:42;;;;;;;23.90;15.10;;;;;;;;;;25483;292;3003761;-35
2023/04/18 06:48:10;;;;;;;26.10;16.90;;;;;;;;;;25600;292;3004784;-32
2023/04/18 06:50:38;;;;;;;23.60;16.10;;;;;;;;;;25549;291;3004819;-33
2023/04/18 06:53:06;;;;;;;27.00;15.90;;;;;;;;;;25541;291;3004825;-36
2023/04/18 06:55:35;;;;;;;44.90;20.90;;;;;;;;;;25618;291;3004884;-33
2023/04/18 06:58:04;;;;;;;34.70;18.60;;;;;;;;;;25617;291;3005002;-36
2023/04/18 07:00:31;;;;;;;31.50;18.10;;;;;;;;;;25249;292;3003796;-35
2023/04/18 07:03:01;;;;;;;31.00;16.80;;;;;;;;;;25683;284;3004611;-35
2023/04/18 07:05:29;;;;;;;34.50;17.40;;;;;;;;;;25242;280;3005959;-35
2023/04/18 07:07:57;;;;;;;35.20;19.90;;;;;;;;;;25529;291;3003834;-34
2023/04/18 07:10:25;;;;;;;34.00;20.40;;;;;;;;;;25551;291;3005249;-36
2023/04/18 07:12:53;;;;;;;33.10;19.80;;;;;;;;;;25529;292;3004973;-33
2023/04/18 07:15:21;;;;;;;26.10;17.40;;;;;;;;;;25598;291;3005165;-37
2023/04/18 07:17:49;;;;;;;47.50;19.90;;;;;;;;;;25443;291;3005159;-35
2023/04/18 07:20:17;;;;;;;38.00;19.70;;;;;;;;;;25528;292;3005453;-33
2023/04/18 07:22:46;;;;;;;30.60;18.00;;;;;;;;;;25601;291;3006114;-32
2023/04/18 07:25:14;;;;;;;29.10;18.00;;;;;;;;;;25229;292;3003744;-33
2023/04/18 07:27:42;;;;;;;28.70;17.20;;;;;;;;;;25605;284;3004276;-32
2023/04/18 07:30:10;;;;;;;32.40;18.40;;;;;;;;;;25613;303;3005002;-35
2023/04/18 07:32:38;;;;;;;41.10;21.90;;;;;;;;;;25422;291;3005984;-35
2023/04/18 07:35:07;;;;;;;42.20;21.20;;;;;;;;;;25484;292;3005251;-32
2023/04/18 07:37:35;;;;;;;42.30;18.20;;;;;;;;;;25242;291;3004561;-32
2023/04/18 07:40:03;;;;;;;29.30;18.10;;;;;;;;;;25497;292;3006199;-35
2023/04/18 07:42:31;;;;;;;22.70;13.20;;;;;;;;;;25259;291;3005016;-37
2023/04/18 07:44:59;;;;;;;34.70;18.90;;;;;;;;;;25596;303;3006176;-35
2023/04/18 07:47:27;;;;;;;36.80;21.20;;;;;;;;;;25651;291;3006147;-32
2023/04/18 07:49:56;;;;;;;34.90;17.90;;;;;;;;;;25523;291;3003569;-35
2023/04/18 07:52:23;;;;;;;29.40;17.70;;;;;;;;;;25275;291;3003780;-35
2023/04/18 07:54:51;;;;;;;26.00;15.60;;;;;;;;;;25581;293;3006217;-35
2023/04/18 07:57:20;;;;;;;28.40;12.00;;;;;;;;;;25621;284;3004182;-32
2023/04/18 07:59:51;;;;;;;18.20;11.50;;;;;;;;;;25520;284;3004475;-35
2023/04/18 08:02:20;;;;;;;20.00;12.80;;;;;;;;;;25247;291;3005771;-33
2023/04/18 08:04:48;;;;;;;28.80;16.20;;;;;;;;;;25272;291;3005012;-35
2023/04/18 08:07:16;;;;;;;39.80;17.70;;;;;;;;;;25172;291;3005728;-36
2023/04/18 08:09:44;;;;;;;25.60;16.30;;;;;;;;;;25653;284;3004982;-35
2023/04/18 08:12:12;;;;;;;22.50;16.50;;;;;;;;;;25399;292;3005952;-33
2023/04/18 08:14:40;;;;;;;27.50;16.20;;;;;;;;;;25623;284;3005953;-32
2023/04/18 08:17:08;;;;;;;44.10;16.40;;;;;;;;;;25289;292;3004944;-35
2023/04/18 08:19:36;;;;;;;21.70;12.60;;;;;;;;;;25710;291;3003627;-35
2023/04/18 08:22:09;;;;;;;21.80;14.60;;;;;;;;;;25553;284;3005000;-35
2023/04/18 08:24:36;;;;;;;;;;;;;;;;;;25247;291;3004316;-33
2023/04/18 08:27:04;;;;;;;18.60;10.50;;;;;;;;;;25654;292;3004996;-31
2023/04/18 08:29:33;;;;;;;19.50;12.90;;;;;;;;;;25433;291;3004968;-34
2023/04/18 08:32:01;;;;;;;18.30;12.50;;;;;;;;;;25609;291;3003474;-34
2023/04/18 08:34:31;;;;;;;24.10;12.60;;;;;;;;;;25610;292;3005392;-32
2023/04/18 08:36:59;;;;;;;20.20;11.10;;;;;;;;;;25265;292;3003777;-33
2023/04/18 08:39:27;;;;;;;10.30;6.70;;;;;;;;;;25583;292;3006550;-33
2023/04/18 08:41:58;;;;;;;15.10;11.20;;;;;;;;;;25605;292;3006016;-33
2023/04/18 08:44:26;;;;;;;19.50;11.80;;;;;;;;;;25205;292;3005307;-35
2023/04/18 08:46:54;;;;;;;16.90;13.00;;;;;;;;;;25425;311;3003691;-33
2023/04/18 08:49:23;;;;;;;15.70;12.30;;;;;;;;;;25377;292;3003637;-34
2023/04/18 08:51:51;;;;;;;11.60;8.50;;;;;;;;;;25298;292;3006116;-33
2023/04/18 08:54:19;;;;;;;11.80;8.50;;;;;;;;;;25323;284;3006625;-35
2023/04/18 08:57:02;;;;;;;11.20;8.40;;;;;;;;;;25227;284;3006138;-33
2023/04/18 08:59:31;;;;;;;18.60;12.10;;;;;;;;;;25250;280;3005186;-33
2023/04/18 09:02:00;;;;;;;19.50;11.10;;;;;;;;;;25171;294;3005192;-33
2023/04/18 09:04:34;;;;;;;22.20;11.70;;;;;;;;;;25256;292;3004998;-35
2023/04/18 09:07:03;;;;;;;13.20;10.90;;;;;;;;;;25231;292;3004967;-34
2023/04/18 09:09:42;;;;;;;17.20;12.50;;;;;;;;;;25230;292;3003617;-35
2023/04/18 09:12:13;;;;;;;13.90;9.70;;;;;;;;;;25252;292;3005726;-36
2023/04/18 09:14:44;;;;;;;14.00;8.20;;;;;;;;;;25250;284;3005949;-35
2023/04/18 09:17:13;;;;;;;;;;;;;;;;;;25234;284;3006151;-35
2023/04/18 09:19:45;;;;;;;16.50;8.50;;;;;;;;;;25228;292;3006311;-33
2023/04/18 09:22:12;;;;;;;11.70;8.00;;;;;;;;;;25260;292;3006535;-35
2023/04/18 09:24:46;;;;;;;11.10;8.60;;;;;;;;;;25595;292;3006162;-32
2023/04/18 09:27:14;;;;;;;13.00;11.30;;;;;;;;;;25228;292;3006691;-35
2023/04/18 09:29:46;;;;;;;18.10;14.10;;;;;;;;;;25622;292;3005387;-35
2023/04/18 09:32:25;;;;;;;13.00;9.00;;;;;;;;;;25219;286;3004995;-33
2023/04/18 09:34:57;;;;;;;12.50;8.00;;;;;;;;;;25222;306;3005984;-33
2023/04/18 09:37:24;;;;;;;16.00;11.50;;;;;;;;;;25191;342;3006150;-35
2023/04/18 09:39:52;;;;;;;15.50;10.70;;;;;;;;;;25450;292;3006469;-35
2023/04/18 09:42:23;;;;;;;13.90;9.80;;;;;;;;;;25201;294;3006217;-35
2023/04/18 09:45:00;;;;;;;11.70;9.00;;;;;;;;;;25626;284;3003533;-33
2023/04/18 09:47:28;;;;;;;13.10;10.60;;;;;;;;;;25235;284;3004959;-33
2023/04/18 09:49:56;;;;;;;21.30;14.40;;;;;;;;;;25385;292;3003435;-33
2023/04/18 09:52:27;;;;;;;11.60;8.90;;;;;;;;;;25602;284;3004010;-35
2023/04/18 09:54:57;;;;;;;10.80;6.80;;;;;;;;;;25252;292;3005021;-32
2023/04/18 09:57:28;;;;;;;12.90;9.90;;;;;;;;;;25214;294;3003645;-35
2023/04/18 10:00:07;;;;;;;15.20;10.80;;;;;;;;;;25223;293;3005805;-35
2023/04/18 10:02:43;;;;;;;12.60;10.90;;;;;;;;;;25233;292;3004953;-33
2023/04/18 10:05:11;;;;;;;13.30;9.90;;;;;;;;;;25271;284;3003955;-33
2023/04/18 10:07:39;;;;;;;11.70;9.50;;;;;;;;;;25233;292;3005004;-34
2023/04/18 10:10:07;;;;;;;17.20;11.70;;;;;;;;;;25457;292;3005012;-32
2023/04/18 10:12:35;;;;;;;20.70;14.90;;;;;;;;;;25475;292;3004097;-32
2023/04/18 10:15:04;;;;;;;21.70;15.80;;;;;;;;;;25544;284;3004949;-34
2023/04/18 10:17:44;;;;;;;15.70;12.20;;;;;;;;;;25249;304;3005959;-35
2023/04/18 10:20:16;;;;;;;15.10;9.60;;;;;;;;;;25241;291;3006253;-36
2023/04/18 10:22:44;;;;;;;10.90;7.70;;;;;;;;;;25284;292;3006124;-33
2023/04/18 10:25:12;;;;;;;15.80;8.80;;;;;;;;;;25400;284;3004177;-36
2023/04/18 10:27:55;;;;;;;17.10;10.90;;;;;;;;;;25550;288;3005021;-36
2023/04/18 10:30:36;;;;;;;22.90;10.10;;;;;;;;;;25259;291;3005184;-36
2023/04/18 10:33:16;;;;;;;17.90;11.50;;;;;;;;;;25235;284;3003775;-36
2023/04/18 10:35:55;;;;;;;13.90;10.80;;;;;;;;;;25242;292;3005139;-33
2023/04/18 10:38:23;;;;;;;15.70;11.40;;;;;;;;;;25267;292;3004794;-33
2023/04/18 10:40:51;;;;;;;13.70;9.00;;;;;;;;;;25541;292;3005210;-36
2023/04/18 10:43:19;;;;;;;18.00;12.30;;;;;;;;;;25454;284;3005201;-36
2023/04/18 10:46:07;;;;;;;10.20;9.10;;;;;;;;;;25515;292;3003635;-32
2023/04/18 10:48:37;;;;;;;19.50;10.80;;;;;;;;;;25255;291;3006337;-35
2023/04/18 10:51:17;;;;;;;17.20;13.50;;;;;;;;;;25265;291;3004751;-32
2023/04/18 10:53:50;;;;;;;16.00;10.80;;;;;;;;;;25265;284;3005268;-32
2023/04/18 10:56:19;;;;;;;17.00;10.10;;;;;;;;;;25206;294;3003672;-32
2023/04/18 10:58:50;;;;;;;26.90;11.50;;;;;;;;;;25239;284;3004933;-35
2023/04/18 11:01:21;;;;;;;12.20;7.90;;;;;;;;;;25246;292;3003629;-32
2023/04/18 11:03:48;;;;;;;22.20;14.70;;;;;;;;;;25237;292;3004963;-33
2023/04/18 11:46:01;;;;;;;15.90;10.80;;;;;;;-99.68;15.46;20009.31;19581;295;8046704;-37
2023/04/18 11:48:35;;;;;;;10.50;8.70;;;;;;;-128.00;-1.00;-1.00;18148;296;7504114;-33
2023/04/18 11:51:01;;;;;;;14.10;11.70;;;;;;;-128.00;-1.00;-1.00;18466;296;7504608;-33
2023/04/18 11:53:32;;;;;;;16.50;12.30;;;;;;;-128.00;-1.00;-1.00;18870;295;7504672;-37
2023/04/18 11:55:58;;;;;;;15.00;10.90;;;;;;;-128.00;-1.00;-1.00;18482;284;7506591;-34
2023/04/18 11:58:34;;;;;;;15.30;10.60;;;;;;;-128.00;-1.00;-1.00;18453;287;7505871;-33
2023/04/18 12:01:13;;;;;;;13.90;8.00;;;;;;;-128.00;-1.00;-1.00;18454;295;7504765;-36
2023/04/18 12:03:43;;;;;;;12.20;10.90;;;;;;;-128.00;-1.00;-1.00;18494;295;7504777;-33
2023/04/18 12:06:08;;;;;;;12.40;8.90;;;;;;;-128.00;-1.00;-1.00;18480;295;7505126;-36
2023/04/18 12:08:34;;;;;;;11.30;8.50;;;;;;;-128.00;-1.00;-1.00;18479;296;7504819;-36
2023/04/18 12:11:00;;;;;;;16.40;9.10;;;;;;;-128.00;-1.00;-1.00;18490;295;7504323;-36
2023/04/18 12:13:31;;;;;;;12.10;10.50;;;;;;;-128.00;-1.00;-1.00;18487;295;7506215;-33
2023/04/18 12:15:57;;;;;;;15.40;9.90;;;;;;;-128.00;-1.00;-1.00;18445;289;7505766;-36
2023/04/18 12:18:23;;;;;;;9.70;4.70;;;;;;;-128.00;-1.00;-1.00;18467;347;7506238;-32
2023/04/18 12:20:51;;;;;;;15.90;9.00;;;;;;;-128.00;-1.00;-1.00;18468;347;7504929;-33
2023/04/18 12:23:29;;;;;;;19.50;7.70;;;;;;;-128.00;-1.00;-1.00;18466;295;7504504;-32
2023/04/18 12:26:00;;;;;;;12.10;9.00;;;;;;;-128.00;-1.00;-1.00;18469;295;7504136;-37
2023/04/18 12:28:26;;;;;;;39.20;29.10;;;;;;;-128.00;-1.00;-1.00;18480;285;7505016;-36
2023/04/18 12:30:52;;;;;;;13.10;10.60;;;;;;;-128.00;-1.00;-1.00;18424;295;7504353;-36
2023/04/18 12:33:18;;;;;;;15.20;9.00;;;;;;;-128.00;-1.00;-1.00;18882;295;7504280;-32
2023/04/18 12:35:44;;;;;;;12.90;10.20;;;;;;;-128.00;-1.00;-1.00;18502;287;7505201;-36
2023/04/18 12:38:10;;;;;;;9.50;7.70;;;;;;;-128.00;-1.00;-1.00;18481;295;7504918;-33
2023/04/18 12:40:38;;;;;;;11.50;8.40;;;;;;;-128.00;-1.00;-1.00;18846;297;7504855;-35
2023/04/18 12:43:03;;;;;;;6.20;4.90;;;;;;;-128.00;-1.00;-1.00;18457;303;7505226;-35
2023/04/18 12:45:29;;;;;;;15.70;11.00;;;;;;;-128.00;-1.00;-1.00;18477;295;7504786;-35
2023/04/18 12:47:55;;;;;;;27.00;11.70;;;;;;;-128.00;-1.00;-1.00;18451;347;7506697;-31
2023/04/18 12:50:24;;;;;;;15.80;8.80;;;;;;;-128.00;-1.00;-1.00;18488;285;7504181;-31
2023/04/18 12:52:54;;;;;;;18.10;10.20;;;;;;;-128.00;-1.00;-1.00;18464;295;7504840;-36
2023/04/18 12:55:21;;;;;;;22.60;13.40;;;;;;;-128.00;-1.00;-1.00;18499;288;7504359;-32
2023/04/18 12:57:49;;;;;;;22.20;12.30;;;;;;;-128.00;-1.00;-1.00;18467;295;7505658;-31
2023/04/18 13:00:15;;;;;;;14.50;8.90;;;;;;;-128.00;-1.00;-1.00;18486;288;7504838;-36
2023/04/18 13:02:43;;;;;;;14.50;10.00;;;;;;;-128.00;-1.00;-1.00;18485;295;7505095;-36
2023/04/18 13:05:13;;;;;;;13.80;11.20;;;;;;;-128.00;-1.00;-1.00;18455;295;7504485;-36
2023/04/18 13:07:39;;;;;;;11.20;8.40;;;;;;;-128.00;-1.00;-1.00;18495;295;7506192;-36
2023/04/18 13:10:11;;;;;;;10.10;8.00;;;;;;;-128.00;-1.00;-1.00;18472;288;7504407;-36
2023/04/18 13:12:37;;;;;;;16.50;10.70;;;;;;;-128.00;-1.00;-1.00;18470;295;7504395;-32
2023/04/18 13:15:04;;;;;;;12.00;8.20;;;;;;;-128.00;-1.00;-1.00;18472;285;7504853;-33
2023/04/18 13:17:30;;;;;;;13.80;11.60;;;;;;;-128.00;-1.00;-1.00;18472;295;7505044;-32
2023/04/18 13:19:55;;;;;;;18.50;13.30;;;;;;;-128.00;-1.00;-1.00;18500;295;7504356;-33
2023/04/18 13:22:21;;;;;;;20.80;14.00;;;;;;;-128.00;-1.00;-1.00;18878;295;7504474;-32
2023/04/18 13:24:48;;;;;;;23.40;16.60;;;;;;;-128.00;-1.00;-1.00;18883;295;7504466;-33
2023/04/18 13:27:14;;;;;;;17.70;12.40;;;;;;;-128.00;-1.00;-1.00;18853;295;7504577;-30
2023/04/18 13:29:40;;;;;;;19.80;11.80;;;;;;;-128.00;-1.00;-1.00;18490;295;7505455;-35
2023/04/18 13:32:06;;;;;;;12.70;9.10;;;;;;;-128.00;-1.00;-1.00;18456;285;7504960;-31
2023/04/18 13:34:33;;;;;;;14.50;8.50;;;;;;;-128.00;-1.00;-1.00;18490;295;7504573;-35
2023/04/18 13:36:58;;;;;;;19.30;13.10;;;;;;;-128.00;-1.00;-1.00;18483;295;7506065;-32
2023/04/18 13:39:25;;;;;;;22.30;12.80;;;;;;;-128.00;-1.00;-1.00;18869;295;7505981;-32
2023/04/18 13:41:52;;;;;;;24.00;15.80;;;;;;;-128.00;-1.00;-1.00;18869;295;7504674;-30
2023/04/18 13:44:17;;;;;;;26.30;14.40;;;;;;;-128.00;-1.00;-1.00;18502;288;7504832;-31
2023/04/18 13:46:43;;;;;;;29.40;18.10;;;;;;;-128.00;-1.00;-1.00;18859;295;7504655;-34
2023/04/18 13:49:10;;;;;;;24.40;14.70;;;;;;;-128.00;-1.00;-1.00;18889;288;7505650;-31
2023/04/18 13:51:36;;;;;;;26.40;14.00;;;;;;;-128.00;-1.00;-1.00;18473;295;7504482;-35
2023/04/18 13:54:02;;;;;;;22.40;16.00;;;;;;;-128.00;-1.00;-1.00;18867;289;7505060;-35
2023/04/18 13:56:28;;;;;;;27.30;17.40;;;;;;;-128.00;-1.00;-1.00;18878;311;7504522;-34
2023/04/18 13:58:55;;;;;;;29.60;17.30;;;;;;;-128.00;-1.00;-1.00;18917;288;7504347;-37
2023/04/18 14:01:21;;;;;;;33.90;17.90;;;;;;;-128.00;-1.00;-1.00;18874;292;7506731;-35
2023/04/18 14:03:47;;;;;;;24.40;16.30;;;;;;;-128.00;-1.00;-1.00;18878;288;7504131;-31
2023/04/18 14:06:13;;;;;;;28.10;16.20;;;;;;;-128.00;-1.00;-1.00;18884;289;7504665;-32
2023/04/18 14:08:39;;;;;;;29.20;18.00;;;;;;;-128.00;-1.00;-1.00;18858;296;7504979;-35
2023/04/18 14:11:06;;;;;;;26.90;16.10;;;;;;;-128.00;-1.00;-1.00;18880;348;7504564;-33
2023/04/18 14:13:32;;;;;;;30.90;17.60;;;;;;;-128.00;-1.00;-1.00;18864;288;7504553;-34
2023/04/18 14:15:58;;;;;;;28.90;15.40;;;;;;;-128.00;-1.00;-1.00;18878;307;7504772;-34
2023/04/18 14:18:24;;;;;;;23.00;15.40;;;;;;;-128.00;-1.00;-1.00;18455;288;7504708;-34
2023/04/18 14:20:50;;;;;;;21.80;16.30;;;;;;;-128.00;-1.00;-1.00;18474;340;7504782;-35
2023/04/18 14:23:16;;;;;;;33.00;16.30;;;;;;;-128.00;-1.00;-1.00;18493;295;7504726;-31
2023/04/18 14:25:42;;;;;;;27.60;17.40;;;;;;;-128.00;-1.00;-1.00;18481;320;7504524;-30
2023/04/18 14:28:09;;;;;;;29.40;17.30;;;;;;;-128.00;-1.00;-1.00;18501;288;7505281;-31
2023/04/18 14:30:36;;;;;;;21.10;13.40;;;;;;;-128.00;-1.00;-1.00;18479;296;7504901;-34
2023/04/18 14:33:04;;;;;;;21.50;14.40;;;;;;;-128.00;-1.00;-1.00;18490;288;7504663;-34
2023/04/18 14:35:30;;;;;;;31.50;15.60;;;;;;;-128.00;-1.00;-1.00;18474;295;7505537;-34
2023/04/18 14:37:56;;;;;;;17.80;11.70;;;;;;;-128.00;-1.00;-1.00;18455;295;7504819;-32
2023/04/18 14:40:22;;;;;;;32.30;17.80;;;;;;;-128.00;-1.00;-1.00;18884;295;7504310;-31
2023/04/18 14:42:52;;;;;;;36.10;15.00;;;;;;;-128.00;-1.00;-1.00;18476;295;7504396;-31
2023/04/18 14:45:17;;;;;;;38.00;16.60;;;;;;;-128.00;-1.00;-1.00;18469;348;7504311;-31
2023/04/18 14:47:43;;;;;;;33.20;15.70;;;;;;;-128.00;-1.00;-1.00;18462;297;7505848;-31
2023/04/18 14:50:10;;;;;;;19.30;12.60;;;;;;;-128.00;-1.00;-1.00;18490;310;7504614;-30
2023/04/18 14:52:37;;;;;;;20.80;12.80;;;;;;;-128.00;-1.00;-1.00;18481;296;7506658;-31